createdAt,value
2022-10-30T00:00:02.348Z,61.15
2022-10-30T00:03:04.004Z,61.14
2022-10-30T00:05:35.556Z,61.95
2022-10-30T00:08:06.952Z,62.20
2022-10-30T00:10:38.236Z,61.87
2022-10-30T00:13:08.899Z,61.67
2022-10-30T00:15:39.763Z,61.48
2022-10-30T00:18:11.194Z,61.03
2022-10-30T00:20:41.929Z,60.45
2022-10-30T00:23:16.603Z,61.52
2022-10-30T00:25:47.180Z,62.00
2022-10-30T00:28:18.632Z,61.75
2022-10-30T00:30:49.466Z,62.47
2022-10-30T00:33:20.916Z,61.86
2022-10-30T00:35:51.451Z,61.83
2022-10-30T00:38:23.162Z,61.44
2022-10-30T00:40:54.749Z,61.90
2022-10-30T00:43:32.905Z,61.16
2022-10-30T00:46:07.379Z,61.19
2022-10-30T00:48:38.347Z,60.21
2022-10-30T00:51:10.409Z,60.78
2022-10-30T00:53:41.961Z,61.56
2022-10-30T00:56:15.532Z,61.21
2022-10-30T00:58:49.198Z,62.10
2022-10-30T01:01:18.347Z,62.84
2022-10-30T01:03:51.025Z,62.89
2022-10-30T01:06:22.263Z,61.99
2022-10-30T01:08:58.751Z,62.25
2022-10-30T01:11:31.711Z,63.01
2022-10-30T01:14:04.877Z,63.64
2022-10-30T01:16:45.923Z,63.38
2022-10-30T01:19:24.492Z,61.50
2022-10-30T01:22:00.964Z,60.88
2022-10-30T01:24:38.479Z,60.30
2022-10-30T01:27:19.839Z,60.36
2022-10-30T01:29:57.025Z,60.60
2022-10-30T01:32:37.587Z,61.36
2022-10-30T01:35:11.943Z,62.73
2022-10-30T01:37:49.127Z,63.17
2022-10-30T01:40:20.640Z,62.86
2022-10-30T01:42:52.910Z,62.98
2022-10-30T01:45:44.950Z,62.42
2022-10-30T01:48:35.439Z,62.08
2022-10-30T01:51:14.162Z,60.77
2022-10-30T01:53:49.538Z,59.69
2022-10-30T01:56:23.591Z,63.16
2022-10-30T01:58:59.370Z,64.59
2022-10-30T02:01:33.103Z,63.42
2022-10-30T02:06:40.000Z,62.41
2022-10-30T02:09:11.511Z,61.01
2022-10-30T02:11:51.467Z,60.43
2022-10-30T02:14:24.652Z,61.23
2022-10-30T02:16:58.197Z,62.23
2022-10-30T02:19:28.680Z,62.93
2022-10-30T02:21:59.890Z,61.86
2022-10-30T02:24:31.886Z,61.72
2022-10-30T02:27:04.382Z,62.07
2022-10-30T02:29:35.749Z,61.69
2022-10-30T02:32:06.911Z,60.70
2022-10-30T02:34:38.401Z,60.77
2022-10-30T02:37:09.627Z,61.95
2022-10-30T02:39:42.528Z,62.93
2022-10-30T02:42:13.943Z,63.70
2022-10-30T02:44:44.682Z,62.19
2022-10-30T02:47:16.270Z,62.31
2022-10-30T02:49:47.825Z,61.92
2022-10-30T02:52:19.063Z,61.39
2022-10-30T02:54:49.806Z,61.11
2022-10-30T02:57:21.175Z,62.32
2022-10-30T02:59:51.982Z,63.02
2022-10-30T03:02:23.071Z,62.00
2022-10-30T03:04:55.449Z,62.37
2022-10-30T03:07:27.766Z,62.43
2022-10-30T03:10:00.637Z,61.83
2022-10-30T03:12:35.451Z,62.10
2022-10-30T03:15:09.324Z,63.74
2022-10-30T03:17:42.394Z,63.97
2022-10-30T03:20:17.703Z,64.38
2022-10-30T03:22:51.787Z,64.21
2022-10-30T03:25:28.258Z,63.57
2022-10-30T03:28:09.943Z,61.53
2022-10-30T03:30:44.739Z,61.06
2022-10-30T03:33:16.906Z,60.81
2022-10-30T03:35:49.287Z,60.43
2022-10-30T03:38:23.174Z,60.86
2022-10-30T03:40:57.586Z,61.33
2022-10-30T03:43:32.568Z,60.66
2022-10-30T03:46:06.189Z,61.75
2022-10-30T03:48:39.926Z,62.19
2022-10-30T03:51:14.156Z,62.14
2022-10-30T03:53:49.357Z,62.13
2022-10-30T03:56:21.188Z,62.47
2022-10-30T03:58:55.172Z,63.32
2022-10-30T04:01:26.425Z,62.88
2022-10-30T04:03:59.838Z,62.26
2022-10-30T04:06:30.457Z,62.31
2022-10-30T04:23:16.717Z,61.97
2022-10-30T04:25:48.768Z,64.67
2022-10-30T04:28:21.548Z,64.13
2022-10-30T04:30:53.593Z,63.24
2022-10-30T04:33:24.997Z,62.80
2022-10-30T04:35:56.394Z,63.40
2022-10-30T04:38:27.238Z,62.97
2022-10-30T04:40:59.499Z,63.52
2022-10-30T04:43:42.298Z,62.57
2022-10-30T04:46:13.070Z,62.76
2022-10-30T04:48:44.119Z,64.01
2022-10-30T04:51:16.369Z,64.14
2022-10-30T04:53:48.544Z,63.57
2022-10-30T04:56:19.359Z,63.39
2022-10-30T04:58:50.207Z,63.41
2022-10-30T05:01:21.216Z,63.46
2022-10-30T05:03:54.747Z,62.93
2022-10-30T05:06:27.104Z,61.61
2022-10-30T05:08:58.311Z,60.07
2022-10-30T05:11:36.668Z,60.84
2022-10-30T05:14:07.400Z,60.84
2022-10-30T05:16:38.243Z,60.58
2022-10-30T05:19:09.682Z,61.01
2022-10-30T05:21:41.132Z,61.70
2022-10-30T05:24:12.065Z,62.38
2022-10-30T05:26:47.005Z,62.69
2022-10-30T05:29:23.068Z,62.97
2022-10-30T05:31:53.987Z,62.95
2022-10-30T05:34:47.183Z,61.15
2022-10-30T05:37:21.275Z,61.35
2022-10-30T05:39:55.012Z,61.53
2022-10-30T05:42:33.041Z,59.81
2022-10-30T05:45:09.166Z,64.24
2022-10-30T05:47:43.929Z,64.86
2022-10-30T05:50:27.596Z,62.36
2022-10-30T05:53:18.404Z,63.31
2022-10-30T05:55:52.302Z,63.86
2022-10-30T05:58:26.313Z,63.31
2022-10-30T06:01:01.419Z,63.35
2022-10-30T06:03:41.663Z,63.26
2022-10-30T06:06:15.142Z,63.00
2022-10-30T06:08:48.729Z,62.14
2022-10-30T06:11:38.101Z,61.12
2022-10-30T06:14:10.626Z,60.97
2022-10-30T06:17:00.024Z,61.73
2022-10-30T06:19:37.490Z,62.51
2022-10-30T06:22:28.950Z,64.04
2022-10-30T06:25:06.867Z,62.68
2022-10-30T06:27:59.075Z,63.14
2022-10-30T06:30:31.663Z,61.89
2022-10-30T06:33:03.506Z,63.80
2022-10-30T06:35:34.777Z,63.08
2022-10-30T06:38:05.903Z,60.49
2022-10-30T06:40:38.042Z,61.73
2022-10-30T06:43:27.488Z,64.78
2022-10-30T06:46:11.484Z,63.52
2022-10-30T06:48:45.859Z,61.95
2022-10-30T06:51:17.754Z,61.45
2022-10-30T06:53:49.918Z,60.75
2022-10-30T06:56:39.089Z,60.58
2022-10-30T06:59:20.907Z,61.69
2022-10-30T07:02:01.762Z,62.06
2022-10-30T07:04:49.081Z,59.93
2022-10-30T07:07:21.031Z,61.58
2022-10-30T07:09:53.766Z,66.14
2022-10-30T07:12:32.164Z,65.69
2022-10-30T07:15:15.927Z,64.84
2022-10-30T07:18:13.397Z,63.46
2022-10-30T07:20:44.548Z,62.74
2022-10-30T07:23:16.056Z,61.95
2022-10-30T07:25:48.953Z,60.10
2022-10-30T07:28:26.585Z,62.11
2022-10-30T07:31:24.243Z,64.91
2022-10-30T07:34:41.743Z,62.54
2022-10-30T07:37:32.208Z,61.31
2022-10-30T07:40:13.181Z,61.96
2022-10-30T07:43:13.514Z,60.31
2022-10-30T07:46:00.105Z,61.73
2022-10-30T07:49:03.750Z,60.02
2022-10-30T07:51:48.677Z,61.67
2022-10-30T07:54:21.437Z,63.51
2022-10-30T07:56:52.590Z,63.25
2022-10-30T07:59:42.117Z,61.15
2022-10-30T08:02:24.990Z,58.41
2022-10-30T08:05:18.639Z,63.91
2022-10-30T08:08:18.462Z,60.53
2022-10-30T08:10:50.025Z,60.48
2022-10-30T08:13:21.219Z,64.24
2022-10-30T08:15:52.277Z,61.34
2022-10-30T08:18:23.039Z,59.99
2022-10-30T08:20:54.510Z,60.31
2022-10-30T08:34:49.766Z,59.88
2022-10-30T08:37:22.160Z,63.04
2022-10-30T08:39:52.978Z,60.94
2022-10-30T08:42:39.094Z,59.14
2022-10-30T08:45:13.755Z,62.78
2022-10-30T08:48:02.404Z,60.38
2022-10-30T08:50:34.868Z,59.05
2022-10-30T08:53:07.096Z,62.43
2022-10-30T08:55:38.636Z,60.70
2022-10-30T08:58:14.499Z,59.80
2022-10-30T09:00:48.634Z,62.73
2022-10-30T09:03:19.960Z,60.84
2022-10-30T09:06:10.725Z,58.58
2022-10-30T09:09:00.006Z,62.22
2022-10-30T09:11:40.282Z,60.66
2022-10-30T09:14:11.729Z,59.41
2022-10-30T09:16:43.614Z,61.27
2022-10-30T09:19:18.605Z,63.40
2022-10-30T09:21:50.679Z,60.75
2022-10-30T09:24:21.723Z,57.88
2022-10-30T09:27:12.465Z,61.08
2022-10-30T09:29:53.094Z,63.85
2022-10-30T09:32:29.014Z,61.65
2022-10-30T09:35:07.670Z,57.66
2022-10-30T09:37:44.139Z,59.78
2022-10-30T09:40:21.260Z,62.58
2022-10-30T09:42:52.281Z,58.20
2022-10-30T09:45:35.436Z,57.55
2022-10-30T09:48:15.710Z,60.57
2022-10-30T09:51:14.787Z,62.76
2022-10-30T09:53:54.993Z,57.77
2022-10-30T09:56:32.849Z,58.16
2022-10-30T09:59:07.692Z,61.07
2022-10-30T10:01:41.913Z,62.14
2022-10-30T10:04:23.873Z,58.71
2022-10-30T10:07:21.025Z,59.94
2022-10-30T10:10:18.937Z,62.09
2022-10-30T10:13:00.379Z,62.37
2022-10-30T10:15:35.993Z,58.68
2022-10-30T10:18:12.887Z,59.13
2022-10-30T10:20:45.240Z,60.62
2022-10-30T10:33:02.945Z,55.02
2022-10-30T10:35:58.030Z,56.56
2022-10-30T10:38:36.826Z,58.72
2022-10-30T10:41:16.053Z,60.01
2022-10-30T10:44:02.116Z,61.51
2022-10-30T10:46:38.882Z,61.86
2022-10-30T10:49:15.148Z,62.52
2022-10-30T10:51:49.458Z,59.27
2022-10-30T10:54:24.041Z,59.44
2022-10-30T10:56:55.727Z,59.31
2022-10-30T10:59:28.703Z,60.32
2022-10-30T11:02:11.587Z,59.76
2022-10-30T11:04:44.005Z,60.54
2022-10-30T11:07:20.904Z,60.69
2022-10-30T11:09:53.769Z,61.00
2022-10-30T11:12:30.793Z,60.52
2022-10-30T11:15:08.346Z,60.83
2022-10-30T11:17:44.570Z,62.41
2022-10-30T11:20:21.308Z,59.91
2022-10-30T11:22:54.850Z,56.20
2022-10-30T11:25:31.404Z,56.86
2022-10-30T11:28:05.972Z,56.31
2022-10-30T11:30:38.120Z,57.12
2022-10-30T11:33:22.680Z,57.33
2022-10-30T11:35:54.361Z,59.48
2022-10-30T11:38:28.685Z,59.45
2022-10-30T11:41:03.768Z,60.37
2022-10-30T11:43:34.822Z,60.15
2022-10-30T11:46:09.497Z,60.49
2022-10-30T11:48:44.458Z,60.84
2022-10-30T11:51:15.869Z,61.48
2022-10-30T11:53:49.838Z,61.29
2022-10-30T11:56:21.515Z,61.30
2022-10-30T11:58:53.125Z,61.46
2022-10-30T12:01:25.135Z,61.42
2022-10-30T12:03:56.764Z,60.71
2022-10-30T12:06:30.375Z,60.70
2022-10-30T12:09:01.722Z,60.86
2022-10-30T12:11:34.095Z,61.66
2022-10-30T12:14:05.126Z,61.50
2022-10-30T12:16:35.563Z,61.52
2022-10-30T12:19:09.913Z,60.79
2022-10-30T12:21:46.127Z,61.67
2022-10-30T12:24:20.044Z,61.09
2022-10-30T12:26:52.443Z,60.86
2022-10-30T12:29:36.492Z,60.64
2022-10-30T12:32:21.121Z,60.73
2022-10-30T12:34:57.082Z,60.70
2022-10-30T12:37:29.347Z,60.69
2022-10-30T12:40:02.836Z,60.34
2022-10-30T12:42:36.580Z,60.54
2022-10-30T12:45:13.837Z,60.67
2022-10-30T12:47:47.287Z,60.81
2022-10-30T12:50:21.181Z,60.92
2022-10-30T12:52:55.608Z,60.60
2022-10-30T12:55:28.926Z,60.76
2022-10-30T12:57:57.856Z,60.44
2022-10-30T13:00:30.425Z,60.27
2022-10-30T13:03:02.924Z,60.19
2022-10-30T13:05:42.264Z,59.77
2022-10-30T13:08:22.138Z,59.69
2022-10-30T13:10:54.289Z,59.92
2022-10-30T13:13:26.389Z,58.50
2022-10-30T13:15:58.475Z,56.99
2022-10-30T13:18:31.725Z,53.92
2022-10-30T13:21:07.610Z,52.17
2022-10-30T13:23:42.208Z,52.09
2022-10-30T13:26:18.831Z,51.13
2022-10-30T13:28:57.385Z,49.09
2022-10-30T13:31:34.353Z,48.64
2022-10-30T13:34:15.369Z,49.48
2022-10-30T13:36:50.599Z,50.89
2022-10-30T13:39:26.502Z,51.21
2022-10-30T13:42:02.455Z,49.59
2022-10-30T13:44:39.615Z,49.96
2022-10-30T13:47:17.144Z,49.56
2022-10-30T13:49:56.435Z,48.19
2022-10-30T13:52:29.427Z,48.18
2022-10-30T13:55:02.764Z,48.53
2022-10-30T13:57:36.832Z,45.80
2022-10-30T14:00:16.325Z,45.36
2022-10-30T14:03:05.255Z,47.10
2022-10-30T14:05:40.205Z,45.51
2022-10-30T14:08:15.445Z,45.01
2022-10-30T14:10:54.548Z,45.66
2022-10-30T14:13:29.637Z,47.20
2022-10-30T14:16:04.117Z,47.53
2022-10-30T14:18:47.700Z,47.29
2022-10-30T14:21:35.868Z,47.33
2022-10-30T14:24:12.447Z,47.46
2022-10-30T14:26:49.981Z,47.53
2022-10-30T14:29:43.326Z,47.28
2022-10-30T14:32:31.728Z,47.23
2022-10-30T14:35:03.540Z,47.46
2022-10-30T14:37:48.390Z,47.45
2022-10-30T14:40:37.735Z,48.20
2022-10-30T14:43:11.222Z,48.81
2022-10-30T14:45:47.180Z,49.48
2022-10-30T14:48:21.829Z,50.18
2022-10-30T14:50:58.501Z,50.75
2022-10-30T14:53:36.176Z,51.34
2022-10-30T14:56:11.919Z,52.00
2022-10-30T14:58:43.605Z,52.21
2022-10-30T15:01:29.839Z,52.67
2022-10-30T15:04:15.128Z,53.28
2022-10-30T15:06:52.823Z,53.97
2022-10-30T15:09:30.543Z,54.26
2022-10-30T15:12:08.549Z,55.06
2022-10-30T15:14:53.375Z,56.07
2022-10-30T15:17:29.646Z,57.41
2022-10-30T15:20:01.838Z,58.32
2022-10-30T15:22:33.391Z,59.22
2022-10-30T15:25:04.553Z,60.04
2022-10-30T15:27:36.259Z,60.96
2022-10-30T15:30:08.396Z,61.65
2022-10-30T15:32:42.053Z,62.64
2022-10-30T15:35:15.384Z,61.12
2022-10-30T15:37:58.871Z,57.33
2022-10-30T15:40:29.517Z,57.21
2022-10-30T15:43:01.160Z,59.05
2022-10-30T15:45:34.462Z,59.50
2022-10-30T15:48:08.059Z,59.89
2022-10-30T15:50:41.157Z,60.75
2022-10-30T15:53:18.413Z,64.00
2022-10-30T15:55:49.984Z,63.25
2022-10-30T15:58:22.993Z,59.75
2022-10-30T16:01:00.065Z,57.76
2022-10-30T16:03:31.002Z,58.45
2022-10-30T16:06:15.610Z,59.23
2022-10-30T16:08:47.428Z,60.88
2022-10-30T16:11:18.245Z,61.86
2022-10-30T16:13:49.215Z,63.99
2022-10-30T16:16:22.404Z,61.20
2022-10-30T16:18:51.681Z,57.54
2022-10-30T16:21:23.358Z,57.63
2022-10-30T16:23:55.403Z,58.73
2022-10-30T16:26:34.184Z,61.22
2022-10-30T16:29:17.039Z,62.62
2022-10-30T16:31:50.288Z,63.20
2022-10-30T16:34:24.639Z,59.28
2022-10-30T16:36:55.276Z,57.52
2022-10-30T16:39:26.317Z,59.03
2022-10-30T16:41:59.204Z,59.89
2022-10-30T16:44:30.258Z,62.51
2022-10-30T16:47:03.555Z,63.84
2022-10-30T16:49:36.618Z,62.50
2022-10-30T16:52:08.193Z,58.64
2022-10-30T16:54:40.181Z,57.72
2022-10-30T16:57:21.028Z,58.92
2022-10-30T16:59:52.267Z,59.80
2022-10-30T17:02:23.888Z,61.40
2022-10-30T17:04:58.187Z,65.34
2022-10-30T17:07:29.359Z,65.15
2022-10-30T17:09:59.689Z,61.89
2022-10-30T17:12:30.790Z,58.52
2022-10-30T17:15:12.787Z,57.93
2022-10-30T17:17:43.580Z,59.13
2022-10-30T17:20:30.809Z,60.54
2022-10-30T17:23:14.886Z,61.38
2022-10-30T17:25:45.859Z,66.09
2022-10-30T17:31:27.288Z,61.65
2022-10-30T17:34:18.194Z,58.41
2022-10-30T17:36:51.774Z,58.21
2022-10-30T17:39:24.139Z,59.99
2022-10-30T17:41:57.389Z,61.43
2022-10-30T17:44:31.145Z,65.47
2022-10-30T17:47:01.840Z,64.96
2022-10-30T17:49:33.543Z,61.95
2022-10-30T17:52:04.944Z,59.01
2022-10-30T17:54:36.025Z,58.84
2022-10-30T17:57:06.860Z,60.90
2022-10-30T17:59:38.003Z,63.05
2022-10-30T18:02:13.221Z,64.39
2022-10-30T18:04:44.588Z,62.46
2022-10-30T18:07:15.728Z,60.40
2022-10-30T18:09:47.390Z,58.55
2022-10-30T18:12:19.357Z,59.13
2022-10-30T18:14:50.113Z,61.08
2022-10-30T18:17:20.652Z,65.46
2022-10-30T18:19:51.316Z,65.47
2022-10-30T18:22:22.283Z,62.78
2022-10-30T18:24:53.425Z,60.96
2022-10-30T18:27:23.847Z,58.79
2022-10-30T18:29:55.328Z,58.76
2022-10-30T18:32:25.616Z,60.29
2022-10-30T18:34:56.354Z,64.70
2022-10-30T18:37:26.797Z,64.87
2022-10-30T18:39:57.955Z,62.41
2022-10-30T18:42:28.265Z,60.90
2022-10-30T18:44:58.972Z,58.77
2022-10-30T18:47:29.261Z,59.02
2022-10-30T18:50:00.235Z,60.45
2022-10-30T18:52:31.193Z,64.87
2022-10-30T18:55:02.540Z,65.17
2022-10-30T18:57:32.958Z,63.05
2022-10-30T19:00:06.946Z,60.98
2022-10-30T19:02:37.448Z,58.50
2022-10-30T19:05:18.389Z,59.43
2022-10-30T19:07:48.891Z,61.55
2022-10-30T19:10:19.937Z,65.89
2022-10-30T19:13:11.008Z,65.46
2022-10-30T19:15:43.261Z,62.59
2022-10-30T19:18:13.997Z,61.02
2022-10-30T19:21:03.747Z,59.79
2022-10-30T19:23:35.490Z,59.43
2022-10-30T19:26:06.889Z,61.90
2022-10-30T19:28:38.384Z,66.37
2022-10-30T19:31:09.472Z,66.26
2022-10-30T19:33:39.845Z,64.14
2022-10-30T19:39:12.607Z,62.38
2022-10-30T19:41:43.839Z,61.87
2022-10-30T19:44:14.659Z,61.18
2022-10-30T19:46:45.699Z,60.62
2022-10-30T19:49:18.969Z,59.99
2022-10-30T19:51:49.861Z,58.81
2022-10-30T19:54:20.386Z,59.29
2022-10-30T19:56:51.044Z,62.55
2022-10-30T19:59:23.579Z,66.63
2022-10-30T20:01:57.299Z,65.25
2022-10-30T20:04:32.101Z,63.45
2022-10-30T20:07:04.174Z,62.51
2022-10-30T20:09:35.176Z,62.13
2022-10-30T20:12:06.966Z,61.78
2022-10-30T20:14:37.379Z,61.92
2022-10-30T20:17:08.294Z,61.57
2022-10-30T20:19:38.961Z,61.71
2022-10-30T20:22:13.693Z,61.50
2022-10-30T20:24:45.067Z,60.74
2022-10-30T20:27:17.914Z,60.94
2022-10-30T20:29:49.562Z,61.97
2022-10-30T20:32:21.268Z,61.95
2022-10-30T20:34:52.637Z,62.08
2022-10-30T20:37:24.387Z,62.44
2022-10-30T20:39:56.634Z,61.98
2022-10-30T20:42:31.904Z,61.96
2022-10-30T20:45:06.812Z,61.71
2022-10-30T20:47:37.865Z,61.71
2022-10-30T20:50:10.202Z,62.02
2022-10-30T20:52:41.895Z,61.64
2022-10-30T20:55:13.840Z,61.23
2022-10-30T20:57:44.603Z,61.24
2022-10-30T21:00:17.392Z,60.34
2022-10-30T21:02:51.657Z,60.23
2022-10-30T21:08:19.283Z,60.24
2022-10-30T21:10:55.085Z,59.67
2022-10-30T21:13:29.293Z,60.05
2022-10-30T21:16:05.276Z,59.78
2022-10-30T21:18:37.415Z,60.69
2022-10-30T21:21:11.752Z,65.16
2022-10-30T21:23:42.412Z,65.18
2022-10-30T21:26:12.946Z,63.78
2022-10-30T21:28:43.551Z,63.04
2022-10-30T21:31:14.303Z,62.73
2022-10-30T21:33:44.848Z,62.57
2022-10-30T21:36:16.720Z,62.98
2022-10-30T21:38:48.076Z,63.88
2022-10-30T21:41:19.463Z,63.95
2022-10-30T21:43:54.366Z,64.33
2022-10-30T21:46:26.460Z,63.95
2022-10-30T21:48:57.228Z,63.85
2022-10-30T21:51:28.285Z,63.41
2022-10-30T21:53:59.001Z,63.05
2022-10-30T21:56:30.432Z,63.19
2022-10-30T21:59:04.858Z,63.60
2022-10-30T22:01:36.907Z,63.52
2022-10-30T22:04:08.264Z,62.87
2022-10-30T22:06:40.842Z,62.40
2022-10-30T22:09:11.794Z,62.26
2022-10-30T22:11:42.317Z,61.82
2022-10-30T22:14:13.063Z,62.33
2022-10-30T22:16:43.509Z,62.96
2022-10-30T22:19:14.209Z,63.13
2022-10-30T22:21:44.630Z,63.31
2022-10-30T22:24:16.175Z,62.92
2022-10-30T22:26:47.356Z,62.54
2022-10-30T22:29:18.210Z,62.92
2022-10-30T22:31:48.720Z,63.92
2022-10-30T22:34:19.381Z,64.13
2022-10-30T22:36:50.357Z,63.61
2022-10-30T22:39:21.600Z,63.12
2022-10-30T22:41:52.064Z,63.71
2022-10-30T22:44:23.885Z,63.51
2022-10-30T22:46:54.832Z,63.12
2022-10-30T22:49:25.588Z,62.74
2022-10-30T22:51:56.120Z,62.35
2022-10-30T22:54:27.131Z,61.93
2022-10-30T22:56:57.964Z,61.35
2022-10-30T22:59:29.121Z,60.80
2022-10-30T23:01:59.731Z,60.25
2022-10-30T23:04:30.677Z,59.69
2022-10-30T23:07:01.361Z,58.33
2022-10-30T23:09:31.903Z,59.93
2022-10-30T23:12:02.155Z,62.18
2022-10-30T23:14:33.008Z,66.60
2022-10-30T23:17:03.217Z,66.43
2022-10-30T23:19:34.105Z,63.51
2022-10-30T23:22:04.558Z,62.53
2022-10-30T23:24:35.447Z,61.49
2022-10-30T23:27:06.057Z,61.30
2022-10-30T23:29:36.498Z,61.11
2022-10-30T23:32:07.345Z,60.83
2022-10-30T23:34:38.096Z,60.62
2022-10-30T23:37:08.649Z,60.30
2022-10-30T23:39:39.327Z,59.85
2022-10-30T23:42:09.734Z,58.52
2022-10-30T23:44:39.972Z,60.22
2022-10-30T23:47:10.831Z,65.06
2022-10-30T23:49:41.209Z,65.04
2022-10-30T23:52:12.268Z,64.48
2022-10-30T23:54:42.675Z,63.40
2022-10-30T23:57:13.740Z,62.38
2022-10-30T23:59:44.037Z,61.56
